Stunt Ranch Reserve, Santa Monica Mtns, California Weather observations

Data are for 10 minute period ending at time listed.
 Day   Time   Solar   Ave.   Ave.  Ave.  Vector  Max.   Baro.   Total    
  of    of     Rad.   Air    Rel.  Wind   Wind   Wind  Press.  Precip.   
Year   Day            Temp.  Hum.  Speed  Dir.   Gust                    
2017   (PST)  Kw/m2    F      %     mph   deg.    mph    mb.     in.     
-------------------------------------------------------------------------
 293   16:10   0.15   71.3    45    3.5   314    10.9   965.5    0.00 
 293   16:20   0.12   69.6    47    3.0   303     9.8   965.5    0.00 
 293   16:30   0.07   67.8    49    1.6   298     5.7   965.1    0.00 
 293   16:40   0.04   66.2    51    1.5   294     7.0   965.5    0.00 
 293   16:50   0.03   65.1    53    1.2   294     5.6   965.5    0.00 
 293   17:00   0.03   64.3    54    1.2   265     4.5   965.8    0.00 
 293   17:10   0.02   63.7    56    1.2   245     3.1   965.8    0.00 
 293   17:20   0.01   63.1    57    1.1   277     2.6   966.1    0.00 
 293   17:30   0.00   62.1    58    1.9   275     5.6   966.1    0.00 
 293   17:40   0.00   61.5    59    1.8   254     4.5   966.1    0.00 
 293   17:50   0.00   61.0    60    2.1   240     3.9   966.5    0.00 
 293   18:00   0.00   60.7    60    1.2   271     2.8   966.5    0.00 
 293   18:10   0.00   60.5    60    1.1   212     3.1   966.8    0.00 
 293   18:20   0.00   59.9    61    2.5   199     4.3   966.8    0.00 
 293   18:30   0.00   59.7    60    3.0   198     4.2   966.8    0.00 
 293   18:40   0.00   59.7    58    2.6   184     3.9   967.2    0.00 
 293   18:50   0.00   59.9    57    2.8   181     5.2   967.2    0.00 
 293   19:00   0.00   60.0    58    3.5   134     5.6   967.2    0.00 
 293   19:10   0.00   60.7    56    2.8   103     6.9   967.2    0.00 
 293   19:20   0.00   61.3    49    3.5    80     7.4   967.5    0.00 
 293   19:30   0.00   60.7    47    6.7    92    14.1   967.2    0.00 
 293   19:40   0.00   61.3    42    9.9   106    16.4   967.2    0.00 
 293   19:50   0.00   61.5    39   11.2   105    20.5   967.2    0.00 
 293   20:00   0.00   61.4    37   10.7   103    17.3   967.2    0.00 
 293   20:10   0.00   61.0    36    9.9   100    14.7   967.2    0.00 
 293   20:20   0.00   61.0    36    9.0    93    13.6   967.5    0.00 
 293   20:30   0.00   60.7    36   10.3    98    16.7   967.5    0.00 
 293   20:40   0.00   60.5    36    9.8    92    15.3   967.5    0.00 
 293   20:50   0.00   60.2    36    8.2    99    13.4   967.8    0.00 
 293   21:00   0.00   60.3    37   10.4    98    15.9   967.8    0.00 
 293   21:10   0.00   60.8    37    8.9    87    18.6   967.8    0.00 
 293   21:20   0.00   60.6    37    7.3    76    14.0   968.2    0.00 
 293   21:30   0.00   60.4    37    4.0    82     9.9   968.2    0.00 
 293   21:40   0.00   59.9    38    4.5   119    12.7   968.2    0.00 
 293   21:50   0.00   60.1    38    5.0   100    14.2   968.2    0.00 
 293   22:00   0.00   59.8    38    2.9    96     6.1   968.2    0.00 
 293   22:10   0.00   59.5    38    2.2    71     6.2   968.5    0.00 
 293   22:20   0.00   59.4    38    4.2   128     9.7   968.5    0.00 
 293   22:30   0.00   59.3    37    5.5    94     8.9   968.5    0.00 
 293   22:40   0.00   58.9    37    4.6   109     8.6   968.5    0.00 
 293   22:50   0.00   57.9    37    4.0    97     8.9   968.5    0.00 
 293   23:00   0.00   57.7    37    5.6    93     9.2   968.5    0.00 
 293   23:10   0.00   57.6    37    3.3   121     5.0   968.8    0.00 
 293   23:20   0.00   57.1    38    3.5   161     5.9   968.8    0.00 
 293   23:30   0.00   56.4    39    3.4   160     6.1   968.8    0.00 
 293   23:40   0.00   56.0    40    4.2   160     6.4   968.8    0.00 
 293   23:50   0.00   56.0    40    3.3   207     5.4   968.8    0.00 
 294    0:00   0.00   56.4    39    1.4   252     4.2   969.2    0.00 
 294    0:10   0.00   56.6    39    1.6   223     3.1   969.2    0.00 
 294    0:20   0.00   55.0    42    1.7   182     3.9   969.2    0.00 
 294    0:30   0.00   55.2    42    1.6   200     3.0   969.2    0.00 
 294    0:40   0.00   56.3    40    1.5   228     4.1   969.2    0.00 
 294    0:50   0.00   56.1    40    2.0   251     4.5   969.2    0.00 
 294    1:00   0.00   55.8    42    3.0   265     6.0   969.2    0.00 
 294    1:10   0.00   54.9    43    2.9   117     5.3   969.2    0.00 
 294    1:20   0.00   54.6    44    2.3   172     3.4   969.5    0.00 
 294    1:30   0.00   54.1    45    3.8   120     8.5   969.5    0.00 
 294    1:40   0.00   56.5    42    4.3    83     8.7   969.5    0.00 
 294    1:50   0.00   56.4    43    8.6    97    15.8   969.5    0.00 
 294    2:00   0.00   56.9    43    8.5    91    15.3   969.5    0.00 
 294    2:10   0.00   56.7    43    7.8    84    16.7   969.9    0.00 
 294    2:20   0.00   56.7    43    6.2    89    13.2   969.5    0.00 
 294    2:30   0.00   57.0    41    5.9    89    14.9   969.5    0.00 
 294    2:40   0.00   57.8    39    3.3   107    15.6   969.5    0.00 
 294    2:50   0.00   57.3    39    5.0   125    11.7   969.5    0.00 
 294    3:00   0.00   57.2    39    7.0   124    15.8   969.5    0.00 
 294    3:10   0.00   56.9    40    7.2   110    12.9   969.5    0.00 
 294    3:20   0.00   56.6    40    2.8   144     8.6   969.5    0.00 
 294    3:30   0.00   56.0    41    5.5   108    10.4   969.5    0.00 
 294    3:40   0.00   56.2    41    5.1   125    11.5   969.5    0.00 
 294    3:50   0.00   55.6    42    5.6    98     9.6   969.5    0.00 
 294    4:00   0.00   56.0    41    1.9    75     6.0   969.5    0.00 
 294    4:10   0.00   55.8    41    2.8   113     5.8   969.9    0.00 
 294    4:20   0.00   55.7    41    2.2   121     5.6   969.9    0.00 
 294    4:30   0.00   55.2    41    2.3   104     5.6   969.9    0.00 
 294    4:40   0.00   54.5    42    3.0   120     6.6   969.9    0.00 
 294    4:50   0.00   54.8    41    1.6   122     3.9   969.9    0.00 
 294    5:00   0.00   53.9    42    4.1   131     7.9   969.9    0.00 
 294    5:10   0.00   54.9    40    5.5   122     9.7   969.9    0.00 
 294    5:20   0.00   55.9    38    6.2   106    10.1   970.2    0.00 
 294    5:30   0.00   56.9    36    5.7   105    11.5   970.2    0.00 
 294    5:40   0.00   57.4    35    4.5    59     9.4   970.2    0.00 
 294    5:50   0.00   57.3    34    2.7    81     7.7   970.5    0.00 
 294    6:00   0.00   57.9    32    4.4    72    13.6   970.5    0.00 
 294    6:10   0.01   58.0    32    5.0    63    11.6   970.2    0.00 
 294    6:20   0.01   57.8    32    3.3    94    14.0   970.2    0.00 
 294    6:30   0.01   58.4    30    3.5   121    10.5   970.2    0.00 
 294    6:40   0.01   58.5    30    3.6    60    12.5   970.5    0.00 
 294    6:50   0.01   59.0    30    3.0   308     6.4   970.9    0.00 
 294    7:00   0.03   58.5    30    3.9   307    13.3   970.9    0.00 
 294    7:10   0.07   58.6    30    4.2   355    11.5   970.9    0.00 
 294    7:20   0.19   61.7    27    5.2    10    15.5   970.9    0.00 
 294    7:30   0.22   62.9    26    5.4    16    20.2   970.9    0.00 
 294    7:40   0.25   63.5    26    5.4   333    16.3   971.2    0.00 
 294    7:50   0.28   63.8    26    3.6   330    12.6   971.2    0.00 
 294    8:00   0.31   64.0    25    6.2     6    17.2   971.6    0.00 
 294    8:10   0.34   64.5    25    4.5     6    16.1   971.6    0.00 
 294    8:20   0.37   65.6    25    8.2   357    18.0   971.6    0.00 
 294    8:30   0.40   66.4    25    7.2    23    19.2   971.6    0.00 
 294    8:40   0.43   66.6    24    8.7    45    18.9   971.6    0.00 
 294    8:50   0.46   66.8    24    7.5    33    19.9   971.6    0.00 
 294    9:00   0.48   68.5    23    7.1    11    17.9   971.6    0.00 
 294    9:10   0.51   69.2    23    7.6   355    19.1   971.6    0.00 
 294    9:20   0.54   69.3    22    7.8    34    19.3   971.6    0.00 
 294    9:30   0.56   70.2    22    6.2    37    14.7   971.6    0.00 
 294    9:40   0.58   70.0    22    9.3    34    20.7   971.6    0.00 
 294    9:50   0.60   70.5    21    7.0    50    19.8   971.6    0.00 
 294   10:00   0.61   71.3    21    9.3    37    21.3   971.6    0.00 
 294   10:10   0.63   71.8    20    5.3    57    20.2   971.6    0.00 
 294   10:20   0.64   73.2    20    4.9   323    15.4   971.6    0.00 
 294   10:30   0.66   72.9    20    3.9   313    12.8   971.9    0.00 
 294   10:40   0.67   74.4    19    3.0    33    10.2   971.9    0.00 
 294   10:50   0.68   75.0    18    5.4    76    17.4   971.6    0.00 
 294   11:00   0.69   75.1    17    5.8    78    14.1   971.9    0.00 
 294   11:10   0.69   75.7    17    4.5   339    12.7   971.6    0.00 
 294   11:20   0.70   76.9    16    7.5    65    16.1   971.9    0.00 
 294   11:30   0.70   75.3    17    9.3    41    16.4   971.9    0.00 
 294   11:40   0.70   75.1    17    6.0    56    16.7   971.9    0.00 
 294   11:50   0.70   75.7    16    5.6    56    20.9   971.6    0.00 
 294   12:00   0.70   77.3    16    6.8    32    15.1   971.6    0.00 
 294   12:10   0.69   77.6    15    8.0    15    20.9   971.6    0.00 
 294   12:20   0.69   79.0    15    5.4     7    14.8   971.6    0.00 
 294   12:30   0.68   80.6    14    4.9   348    13.4   971.6    0.00 
 294   12:40   0.67   81.0    14    6.9   344    17.0   971.6    0.00 
 294   12:50   0.62   79.4    14    6.2   358    14.4   971.6    0.00 
 294   13:00   0.64   80.0    14    3.9    15    13.1   971.2    0.00 
 294   13:10   0.62   79.5    14    7.8    18    14.1   971.2    0.00 
 294   13:20   0.61   80.3    14    6.2   348    13.8   971.2    0.00 
 294   13:30   0.59   81.1    14    5.3   358    12.3   971.2    0.00 
 294   13:40   0.57   80.2    14    6.3     4    16.1   971.2    0.00 
 294   13:50   0.55   81.0    14    5.2     4    14.7   971.2    0.00 
 294   14:00   0.53   81.0    14    6.9   328    15.8   971.2    0.00 
 294   14:10   0.51   82.3    14    5.7   312    18.0   971.2    0.00 
 294   14:20   0.48   81.9    13    6.2    14    13.4   971.2    0.00 
 294   14:30   0.46   79.8    13    4.8    34    12.1   971.2    0.00 
 294   14:40   0.43   81.6    12    7.3   330    17.7   971.2    0.00 
 294   14:50   0.40   81.5    12    5.5   317    20.0   971.2    0.00 
 294   15:00   0.37   82.1    12    4.8   354    12.3   971.2    0.00 
 294   15:10   0.34   79.9    13    6.3    16    15.9   971.2    0.00 
 294   15:20   0.31   79.5    13    5.7    35    14.3   971.2    0.00 
 294   15:30   0.28   79.9    13    3.5     8    10.0   971.2    0.00 
 294   15:40   0.25   80.3    13    5.1     1    14.1   971.2    0.00 
 294   15:50   0.22   78.5    13    5.2    49    12.1   971.2    0.00 
 294   16:00   0.19   78.3    14    5.9    19    14.2   971.2    0.00 

Return to Stunt Ranch Reserve graphs page.


Western Regional Climate Center,wrcc@dri.edu